Time;durP1;ratioP1;P1;durP2;ratioP2;P2;SDS_P1;SDS_P2;PMS_P1;PMS_P2;Temp;Humidity;BMP_temperature;BMP_pressure;BME280_temperature;BME280_humidity;BME280_pressure;Samples;Min_cycle;Max_cycle;Signal;HPM_P1;HPM_P2
2022/11/02 00:00:32;;;;;;;3.80;1.90;;;14.00;47.30;;;;;;4998873;28;20967;-71
2022/11/02 00:02:58;;;;;;;2.50;1.30;;;14.10;47.00;;;;;;4994151;28;20476;-70
2022/11/02 00:05:25;;;;;;;2.60;1.50;;;14.20;46.90;;;;;;4995370;28;20417;-72
2022/11/02 00:07:52;;;;;;;2.93;1.83;;;13.80;47.90;;;;;;4998768;28;20198;-70
2022/11/02 00:10:19;;;;;;;2.30;1.13;;;13.10;51.50;;;;;;5005001;28;20519;-72
2022/11/02 00:12:45;;;;;;;3.33;1.70;;;13.50;50.40;;;;;;5000023;28;20413;-71
2022/11/02 00:15:11;;;;;;;2.40;1.33;;;13.90;49.20;;;;;;4999884;28;20408;-71
2022/11/02 00:17:38;;;;;;;2.20;1.10;;;14.10;49.00;;;;;;4996381;28;20456;-71
2022/11/02 00:20:05;;;;;;;2.20;1.13;;;14.30;46.30;;;;;;4984794;28;20524;-71
2022/11/02 00:22:32;;;;;;;2.43;1.23;;;14.30;46.90;;;;;;4993712;28;20508;-71
2022/11/02 00:24:59;;;;;;;2.80;1.60;;;14.50;46.70;;;;;;4993770;28;20503;-72
2022/11/02 00:27:25;;;;;;;2.23;1.13;;;14.50;46.00;;;;;;4993182;28;20495;-72
2022/11/02 00:29:51;;;;;;;2.70;1.40;;;14.60;45.20;;;;;;4991410;28;20452;-72
2022/11/02 00:32:17;;;;;;;2.30;1.27;;;14.70;45.10;;;;;;4992304;28;20527;-72
2022/11/02 00:34:42;;;;;;;2.20;1.10;;;14.70;44.60;;;;;;5000078;28;20449;-71
2022/11/02 00:37:08;;;;;;;2.53;1.60;;;14.50;45.20;;;;;;4992781;28;20581;-72
2022/11/02 00:39:34;;;;;;;2.50;1.30;;;14.40;45.50;;;;;;4993525;28;20237;-71
2022/11/02 00:41:59;;;;;;;2.30;1.20;;;14.40;45.60;;;;;;4992631;28;20197;-72
2022/11/02 00:44:25;;;;;;;2.27;1.10;;;14.30;45.30;;;;;;4993103;28;20209;-72
2022/11/02 00:46:51;;;;;;;2.33;1.20;;;14.30;45.60;;;;;;4993397;28;20221;-71
2022/11/02 00:49:16;;;;;;;2.37;1.20;;;14.40;45.30;;;;;;4993592;28;20433;-71
2022/11/02 00:51:43;;;;;;;2.30;1.10;;;14.40;45.20;;;;;;4991610;28;20219;-72
2022/11/02 00:54:08;;;;;;;2.20;1.00;;;14.40;45.70;;;;;;4992383;28;20236;-72
2022/11/02 00:56:34;;;;;;;2.20;1.00;;;14.40;45.50;;;;;;4993374;28;20985;-71
2022/11/02 00:58:59;;;;;;;2.40;1.10;;;14.30;45.40;;;;;;4992439;28;20193;-71
2022/11/02 01:01:25;;;;;;;2.43;1.20;;;14.30;44.60;;;;;;4990659;28;20186;-71
2022/11/02 01:03:51;;;;;;;2.50;1.30;;;14.80;44.60;;;;;;4992783;28;20621;-71
2022/11/02 01:06:16;;;;;;;2.43;1.20;;;14.80;44.80;;;;;;4992929;28;20216;-71
2022/11/02 01:08:42;;;;;;;2.40;1.10;;;14.40;45.20;;;;;;4993034;28;20229;-72
2022/11/02 01:11:19;;;;;;;2.47;1.20;;;14.20;45.40;;;;;;4991548;28;20190;-71
2022/11/02 01:13:45;;;;;;;2.40;1.17;;;14.10;45.40;;;;;;4991529;28;20563;-71
2022/11/02 01:16:11;;;;;;;2.50;1.30;;;14.10;45.90;;;;;;4992038;28;20560;-71
2022/11/02 01:18:38;;;;;;;2.47;1.20;;;14.10;46.20;;;;;;4992570;28;20665;-71
2022/11/02 01:21:04;;;;;;;2.40;1.20;;;14.10;45.80;;;;;;4992246;28;20429;-72
2022/11/02 01:23:33;;;;;;;2.50;1.20;;;14.10;46.00;;;;;;4991307;28;20476;-71
2022/11/02 01:26:02;;;;;;;2.50;1.20;;;14.00;45.80;;;;;;4992284;28;20210;-71
2022/11/02 01:28:28;;;;;;;2.40;1.20;;;14.00;46.10;;;;;;4992172;28;20417;-71
2022/11/02 01:30:53;;;;;;;2.40;1.20;;;14.20;47.30;;;;;;4991464;28;20487;-71
2022/11/02 01:33:19;;;;;;;2.50;1.30;;;14.20;46.20;;;;;;4989815;28;20582;-71
2022/11/02 01:35:44;;;;;;;3.83;1.40;;;14.20;46.40;;;;;;4992299;28;20260;-71
2022/11/02 01:38:10;;;;;;;2.80;1.57;;;14.30;46.60;;;;;;4992516;28;20178;-72
2022/11/02 01:40:37;;;;;;;2.50;1.13;;;14.20;46.50;;;;;;4984550;28;20194;-71
2022/11/02 01:43:21;;;;;;;2.50;1.17;;;14.10;45.90;;;;;;4991561;28;20281;-71
2022/11/02 01:45:49;;;;;;;2.40;1.13;;;14.00;46.60;;;;;;4991575;28;20492;-71
2022/11/02 01:48:15;;;;;;;2.50;1.20;;;13.90;46.30;;;;;;5001829;28;20923;-72
2022/11/02 01:50:41;;;;;;;2.60;1.30;;;14.00;46.40;;;;;;5011758;28;20408;-72
2022/11/02 01:53:06;;;;;;;2.43;1.20;;;14.00;46.10;;;;;;5011598;28;20178;-71
2022/11/02 01:55:33;;;;;;;3.43;1.70;;;14.00;46.00;;;;;;4994651;28;20190;-71
2022/11/02 01:58:08;;;;;;;2.37;1.13;;;14.20;46.00;;;;;;4991872;28;20664;-72
2022/11/02 02:00:34;;;;;;;2.63;1.40;;;14.30;45.90;;;;;;4991641;28;20467;-71
2022/11/02 02:03:07;;;;;;;2.50;1.20;;;14.20;46.00;;;;;;4991408;28;20457;-71
2022/11/02 02:05:43;;;;;;;2.50;1.30;;;14.20;46.30;;;;;;4990235;28;20521;-71
2022/11/02 02:08:11;;;;;;;2.50;1.30;;;14.30;46.70;;;;;;4991681;28;20508;-72
2022/11/02 02:10:36;;;;;;;2.60;1.30;;;14.30;45.90;;;;;;4991946;28;20414;-71
2022/11/02 02:13:04;;;;;;;2.40;1.20;;;14.80;45.00;;;;;;4992129;28;20928;-71
2022/11/02 02:15:59;;;;;;;2.40;1.20;;;14.40;46.00;;;;;;4982005;28;20193;-71
2022/11/02 02:18:28;;;;;;;2.40;1.20;;;14.40;45.30;;;;;;4967875;28;20534;-71
2022/11/02 02:21:02;;;;;;;2.40;1.20;;;14.20;45.70;;;;;;5011414;28;20561;-71
2022/11/02 02:24:08;;;;;;;2.80;1.53;;;14.10;45.70;;;;;;5011312;28;20455;-71
2022/11/02 02:26:52;;;;;;;2.30;1.10;;;14.20;45.10;;;;;;4996289;28;20975;-71
2022/11/02 02:29:51;;;;;;;2.50;1.30;;;14.10;45.20;;;;;;4985095;28;20445;-72
2022/11/02 02:32:36;;;;;;;2.60;1.40;;;13.90;45.00;;;;;;4991509;28;20424;-71
2022/11/02 02:35:16;;;;;;;2.40;1.10;;;13.60;44.60;;;;;;4991696;28;20415;-71
2022/11/02 02:37:59;;;;;;;2.50;1.20;;;13.60;45.10;;;;;;4989882;28;20463;-71
2022/11/02 02:40:46;;;;;;;2.60;1.30;;;13.70;45.40;;;;;;4995401;28;20458;-71
2022/11/02 02:43:20;;;;;;;2.50;1.10;;;13.50;45.40;;;;;;4991637;28;20535;-71
2022/11/02 02:45:51;;;;;;;2.70;1.30;;;13.70;45.70;;;;;;4995583;28;20443;-71
2022/11/02 02:48:19;;;;;;;2.50;1.10;;;13.60;44.80;;;;;;4994797;28;20433;-71
2022/11/02 02:50:58;;;;;;;2.50;1.10;;;13.70;44.90;;;;;;4994830;28;20440;-72
2022/11/02 02:53:32;;;;;;;2.57;1.10;;;13.70;44.70;;;;;;4995549;28;20425;-71
2022/11/02 02:55:59;;;;;;;2.93;1.50;;;13.80;45.50;;;;;;4988184;28;20475;-72
2022/11/02 02:58:30;;;;;;;2.70;1.20;;;13.70;45.20;;;;;;4994325;28;20445;-71
2022/11/02 03:00:55;;;;;;;3.83;1.53;;;13.70;45.30;;;;;;4995290;28;20417;-71
2022/11/02 03:03:27;;;;;;;2.70;1.23;;;13.70;45.20;;;;;;4995415;28;20475;-71
2022/11/02 03:06:13;;;;;;;2.70;1.30;;;13.70;45.00;;;;;;4995294;28;20449;-71
2022/11/02 03:08:46;;;;;;;2.60;1.20;;;14.00;46.20;;;;;;4992739;28;20432;-71
2022/11/02 03:11:18;;;;;;;2.87;1.30;;;13.70;45.70;;;;;;4995173;28;20445;-71
2022/11/02 03:13:55;;;;;;;2.60;1.20;;;13.60;45.70;;;;;;4994968;28;20436;-71
2022/11/02 03:16:52;;;;;;;2.60;1.20;;;13.60;45.50;;;;;;4995163;28;20433;-71
2022/11/02 03:20:00;;;;;;;2.60;1.20;;;13.50;46.10;;;;;;4992912;28;20468;-71
2022/11/02 03:22:39;;;;;;;3.70;1.87;;;13.60;45.10;;;;;;4934216;29;20454;-72
2022/11/02 03:25:16;;;;;;;2.80;1.30;;;13.50;45.60;;;;;;4934694;29;20601;-71
2022/11/02 03:28:12;;;;;;;2.67;1.13;;;13.50;45.20;;;;;;4934218;29;20825;-72
2022/11/02 03:30:43;;;;;;;2.70;1.10;;;13.50;45.50;;;;;;4927801;29;20459;-71
2022/11/02 03:33:24;;;;;;;2.80;1.20;;;13.60;45.70;;;;;;4933324;29;20451;-71
2022/11/02 03:36:28;;;;;;;2.80;1.30;;;13.50;45.70;;;;;;4934493;29;20482;-71
2022/11/02 03:38:59;;;;;;;2.70;1.20;;;13.50;45.60;;;;;;4892027;29;20492;-71
2022/11/02 03:41:27;;;;;;;2.80;1.20;;;13.30;45.80;;;;;;4895837;29;20465;-71
2022/11/02 03:43:57;;;;;;;2.70;1.20;;;13.10;46.90;;;;;;4895626;29;20571;-72
2022/11/02 03:46:23;;;;;;;3.07;1.30;;;13.00;46.80;;;;;;4895470;29;21285;-71
2022/11/02 03:48:51;;;;;;;2.90;1.40;;;13.20;46.90;;;;;;4895946;29;20445;-71
2022/11/02 03:51:21;;;;;;;2.70;1.10;;;13.20;46.30;;;;;;4910037;29;20924;-71
2022/11/02 03:53:58;;;;;;;2.70;1.20;;;13.20;46.10;;;;;;4912111;29;20512;-71
2022/11/02 03:56:34;;;;;;;2.70;1.20;;;13.50;45.40;;;;;;4895666;29;20460;-71
2022/11/02 03:59:00;;;;;;;3.50;1.80;;;13.50;45.40;;;;;;4930253;29;20420;-71
2022/11/02 04:01:27;;;;;;;3.43;1.37;;;13.50;45.70;;;;;;4940718;29;20455;-71
2022/11/02 04:03:53;;;;;;;3.20;1.33;;;13.40;45.60;;;;;;4933072;29;20211;-71
2022/11/02 04:06:20;;;;;;;2.80;1.30;;;13.60;46.10;;;;;;4933892;29;20820;-71
2022/11/02 04:08:48;;;;;;;3.10;1.50;;;13.50;46.40;;;;;;4934017;29;20745;-71
2022/11/02 04:16:43;;;;;;;3.83;1.73;;;13.40;45.90;;;;;;4998684;28;20452;-71
2022/11/02 04:19:28;;;;;;;2.80;1.20;;;13.30;46.30;;;;;;5005670;28;20405;-71
2022/11/02 04:27:24;;;;;;;2.60;1.10;;;13.30;46.20;;;;;;4994191;28;20472;-70
2022/11/02 04:29:50;;;;;;;2.70;1.20;;;12.80;46.60;;;;;;4993218;28;20433;-71
2022/11/02 04:33:31;;;;;;;3.07;1.20;;;12.60;47.50;;;;;;4992774;28;20462;-71
2022/11/02 04:35:02;;;;;;;2.70;1.10;;;12.50;47.80;;;;;;5001912;28;20193;-71
2022/11/02 04:40:12;;;;;;;2.60;1.10;;;11.90;51.70;;;;;;4993078;28;20467;-71
2022/11/02 04:42:37;;;;;;;2.60;1.20;;;11.70;52.90;;;;;;4992956;28;20456;-70
2022/11/02 04:45:03;;;;;;;2.70;1.30;;;11.70;53.90;;;;;;5001131;28;20205;-71
2022/11/02 04:47:29;;;;;;;2.70;1.20;;;11.90;52.60;;;;;;4991629;28;20208;-71
2022/11/02 04:49:54;;;;;;;2.70;1.20;;;12.10;52.30;;;;;;4993781;28;20170;-71
2022/11/02 04:52:20;;;;;;;2.70;1.20;;;12.10;51.00;;;;;;4993517;28;20181;-71
2022/11/02 04:54:45;;;;;;;6.30;2.00;;;12.20;50.60;;;;;;4998859;28;20538;-71
2022/11/02 04:57:11;;;;;;;2.80;1.27;;;12.60;49.30;;;;;;4994146;28;20210;-71
2022/11/02 04:59:36;;;;;;;2.70;1.20;;;12.90;47.70;;;;;;4993297;28;20184;-70
2022/11/02 05:02:02;;;;;;;2.80;1.20;;;12.90;47.30;;;;;;4991267;28;20186;-71
2022/11/02 05:04:28;;;;;;;3.17;1.43;;;12.90;46.60;;;;;;4993389;28;20205;-71
2022/11/02 05:06:53;;;;;;;2.80;1.20;;;12.90;46.50;;;;;;4999197;28;20237;-71
2022/11/02 05:09:19;;;;;;;2.80;1.20;;;13.10;46.40;;;;;;4975443;28;20470;-71
2022/11/02 05:11:44;;;;;;;2.90;1.30;;;13.50;45.80;;;;;;4992979;28;20189;-73
2022/11/02 05:14:10;;;;;;;3.00;1.30;;;13.00;46.20;;;;;;4992581;28;20220;-72
2022/11/02 05:16:35;;;;;;;2.90;1.20;;;13.00;46.00;;;;;;5000937;28;20220;-73
2022/11/02 05:19:01;;;;;;;3.50;1.40;;;13.00;45.40;;;;;;4984552;28;20266;-72
2022/11/02 05:21:27;;;;;;;3.10;1.30;;;12.80;45.70;;;;;;4991961;28;20190;-73
2022/11/02 05:23:52;;;;;;;3.00;1.30;;;12.90;45.60;;;;;;4991661;28;20237;-72
2022/11/02 05:26:18;;;;;;;3.00;1.20;;;12.80;46.10;;;;;;5003041;28;20202;-72
2022/11/02 05:28:44;;;;;;;3.10;1.30;;;12.70;46.00;;;;;;5000243;28;20575;-71
2022/11/02 05:31:09;;;;;;;3.57;1.50;;;12.70;46.60;;;;;;4992201;28;20186;-71
2022/11/02 05:33:35;;;;;;;3.00;1.17;;;13.10;46.30;;;;;;4992942;28;20174;-72
2022/11/02 05:36:01;;;;;;;4.10;1.80;;;12.70;45.70;;;;;;4999544;28;20212;-72
2022/11/02 05:38:27;;;;;;;2.97;1.13;;;12.80;46.70;;;;;;5002110;28;20523;-73
2022/11/02 05:40:54;;;;;;;3.20;1.45;;;12.70;46.30;;;;;;4992301;28;20178;-73
2022/11/02 05:43:20;;;;;;;5.10;1.70;;;12.60;46.50;;;;;;4992307;28;20598;-72
2022/11/02 05:45:58;;;;;;;3.20;1.30;;;12.70;46.30;;;;;;4996085;28;20279;-72
2022/11/02 05:48:25;;;;;;;3.13;1.20;;;12.60;46.20;;;;;;4992317;28;20787;-73
2022/11/02 05:50:56;;;;;;;3.00;1.10;;;12.70;45.80;;;;;;4992250;28;20194;-73
2022/11/02 05:53:23;;;;;;;3.00;1.10;;;12.60;45.90;;;;;;4992221;28;20646;-72
2022/11/02 05:55:49;;;;;;;3.07;1.17;;;12.60;45.80;;;;;;4988915;28;20211;-72
2022/11/02 05:58:15;;;;;;;3.08;1.10;;;12.50;45.90;;;;;;5002198;28;20854;-72
2022/11/02 06:00:41;;;;;;;3.40;1.40;;;12.40;46.00;;;;;;5002360;28;20193;-73
2022/11/02 06:03:07;;;;;;;3.17;1.20;;;12.70;46.30;;;;;;4990568;28;20240;-72
2022/11/02 06:05:33;;;;;;;3.10;1.10;;;12.60;46.00;;;;;;4992332;28;20228;-70
2022/11/02 06:08:00;;;;;;;3.17;1.23;;;12.70;46.10;;;;;;4991876;28;20439;-70
2022/11/02 06:10:27;;;;;;;3.10;1.20;;;12.70;45.90;;;;;;4992138;28;20774;-73
2022/11/02 06:12:59;;;;;;;4.55;2.30;;;13.00;46.70;;;;;;4989644;28;20235;-73
2022/11/02 06:15:25;;;;;;;3.10;1.20;;;12.70;45.70;;;;;;4991969;28;20174;-71
2022/11/02 06:17:50;;;;;;;3.10;1.10;;;12.90;46.00;;;;;;4991722;28;20460;-72
2022/11/02 06:20:17;;;;;;;3.10;1.10;;;12.80;45.50;;;;;;4991735;28;20862;-72
2022/11/02 06:22:43;;;;;;;3.60;1.35;;;13.20;45.80;;;;;;4990784;28;20182;-73
2022/11/02 06:25:09;;;;;;;3.70;1.40;;;12.70;46.00;;;;;;4983564;28;20210;-71
2022/11/02 06:27:35;;;;;;;3.17;1.30;;;12.90;45.80;;;;;;4992071;28;20811;-72
2022/11/02 06:30:01;;;;;;;2.90;1.07;;;12.90;46.50;;;;;;4991828;28;20413;-74
2022/11/02 06:32:27;;;;;;;3.50;1.33;;;12.80;46.90;;;;;;4991844;28;20181;-73
2022/11/02 06:34:53;;;;;;;3.00;1.30;;;12.90;47.20;;;;;;4989681;28;20441;-73
2022/11/02 06:37:19;;;;;;;4.00;1.30;;;13.00;46.90;;;;;;4993826;28;20216;-73
2022/11/02 06:39:44;;;;;;;2.90;1.20;;;13.20;47.20;;;;;;5005928;28;20182;-73
2022/11/02 06:42:10;;;;;;;2.90;1.10;;;12.90;46.80;;;;;;4991333;28;20181;-73
2022/11/02 06:44:36;;;;;;;2.87;1.17;;;12.90;47.40;;;;;;4989263;28;20246;-73
2022/11/02 06:47:01;;;;;;;3.43;1.33;;;13.10;47.10;;;;;;4999802;28;20208;-73
2022/11/02 06:49:27;;;;;;;3.10;1.40;;;13.10;46.60;;;;;;4991806;28;20562;-73
2022/11/02 06:51:52;;;;;;;3.00;1.40;;;13.20;46.90;;;;;;4991188;28;20181;-73
2022/11/02 06:54:18;;;;;;;2.70;1.20;;;13.30;46.80;;;;;;4991489;28;20621;-72
2022/11/02 06:56:44;;;;;;;2.90;1.40;;;13.80;47.00;;;;;;4994494;28;20209;-73
2022/11/02 06:59:09;;;;;;;2.70;1.20;;;13.50;46.60;;;;;;4990598;28;20196;-73
2022/11/02 07:01:35;;;;;;;2.60;1.20;;;13.20;47.00;;;;;;4989123;28;20541;-73
2022/11/02 07:04:01;;;;;;;2.50;1.20;;;13.40;46.30;;;;;;4987669;28;20206;-73
2022/11/02 07:06:27;;;;;;;7.33;1.80;;;13.30;45.40;;;;;;4983608;28;20221;-74
2022/11/02 07:08:53;;;;;;;2.63;1.13;;;13.20;46.20;;;;;;4991246;28;20476;-73
2022/11/02 07:11:19;;;;;;;2.57;1.27;;;12.90;46.60;;;;;;4990549;28;20604;-73
2022/11/02 07:13:45;;;;;;;2.70;1.30;;;12.60;47.50;;;;;;4985740;28;20442;-74
2022/11/02 07:16:11;;;;;;;2.33;1.10;;;12.80;47.60;;;;;;4986953;28;20206;-73
2022/11/02 07:18:36;;;;;;;3.07;1.20;;;13.20;46.30;;;;;;4991377;28;20182;-73
2022/11/02 07:21:02;;;;;;;2.60;1.30;;;13.40;45.80;;;;;;4991384;28;20178;-73
2022/11/02 07:23:28;;;;;;;2.43;1.20;;;13.40;45.80;;;;;;4991135;28;20433;-73
2022/11/02 07:25:54;;;;;;;2.77;1.50;;;13.20;46.50;;;;;;4991352;28;20440;-72
2022/11/02 07:28:19;;;;;;;2.50;1.20;;;13.20;46.20;;;;;;4980573;28;20201;-73
2022/11/02 07:30:45;;;;;;;2.37;1.10;;;13.50;45.60;;;;;;4993123;28;20542;-73
2022/11/02 07:33:11;;;;;;;3.40;1.47;;;13.80;45.80;;;;;;4994789;28;20554;-74
2022/11/02 07:35:36;;;;;;;2.33;1.13;;;14.10;45.10;;;;;;4994548;28;20567;-71
2022/11/02 07:38:04;;;;;;;3.10;1.47;;;13.90;45.10;;;;;;4995039;28;20245;-73
2022/11/02 07:40:32;;;;;;;2.70;1.37;;;14.20;44.50;;;;;;4999232;28;20273;-73
2022/11/02 07:42:58;;;;;;;2.30;1.10;;;14.10;44.30;;;;;;5014246;28;20404;-73
2022/11/02 07:45:24;;;;;;;2.60;1.33;;;14.20;43.90;;;;;;5004096;28;20456;-73
2022/11/02 07:47:50;;;;;;;2.50;1.20;;;14.20;44.70;;;;;;4994001;28;20236;-73
2022/11/02 07:50:19;;;;;;;2.37;1.23;;;14.60;43.60;;;;;;4994733;28;20185;-73
2022/11/02 07:52:48;;;;;;;2.30;1.17;;;14.60;43.70;;;;;;4994652;28;20487;-73
2022/11/02 07:55:16;;;;;;;2.70;1.30;;;14.40;43.80;;;;;;4978344;28;20452;-73
2022/11/02 07:57:42;;;;;;;2.50;1.40;;;14.30;43.30;;;;;;4994350;28;20449;-73
2022/11/02 08:00:10;;;;;;;2.30;1.20;;;14.50;43.00;;;;;;4994071;28;20449;-73
2022/11/02 08:02:36;;;;;;;2.83;1.50;;;14.50;42.80;;;;;;5001252;28;20842;-73
2022/11/02 08:05:01;;;;;;;2.73;1.60;;;14.70;43.20;;;;;;5010476;28;20466;-73
2022/11/02 08:07:27;;;;;;;2.90;1.43;;;14.60;42.60;;;;;;4996605;28;20248;-72
2022/11/02 08:09:53;;;;;;;3.33;1.77;;;14.40;43.00;;;;;;4994499;28;20526;-73
2022/11/02 08:12:18;;;;;;;2.10;1.20;;;14.60;43.50;;;;;;5001501;28;20189;-73
2022/11/02 08:14:44;;;;;;;2.40;1.47;;;14.30;43.40;;;;;;5007630;28;20185;-73
2022/11/02 08:17:10;;;;;;;2.10;1.20;;;14.50;43.70;;;;;;5006479;28;20769;-71
2022/11/02 08:19:36;;;;;;;2.40;1.37;;;15.00;43.40;;;;;;4993735;28;20309;-73
2022/11/02 08:22:01;;;;;;;2.00;1.10;;;15.30;42.60;;;;;;4993101;28;20541;-74
2022/11/02 08:24:27;;;;;;;3.90;2.07;;;15.50;41.00;;;;;;5002020;28;20674;-73
2022/11/02 08:26:52;;;;;;;2.07;1.20;;;15.50;40.60;;;;;;4995504;28;20278;-81
2022/11/02 08:29:18;;;;;;;5.40;1.77;;;15.60;40.70;;;;;;4995957;28;20549;-86
2022/11/02 08:31:43;;;;;;;2.17;1.33;;;15.50;40.50;;;;;;4978578;28;20183;-89
2022/11/02 08:34:10;;;;;;;2.17;1.33;;;15.60;41.10;;;;;;5004399;28;20221;-84
2022/11/02 08:36:36;;;;;;;2.00;1.10;;;15.70;41.00;;;;;;4995889;28;20655;-85
2022/11/02 08:39:02;;;;;;;2.10;1.30;;;15.90;41.20;;;;;;4994816;28;20445;-86
2022/11/02 08:41:27;;;;;;;2.73;1.73;;;16.00;40.50;;;;;;4972418;28;20188;-79
2022/11/02 08:43:53;;;;;;;2.00;1.20;;;15.90;40.80;;;;;;4991459;28;20308;-80
2022/11/02 08:46:19;;;;;;;2.20;1.40;;;16.10;41.50;;;;;;4992376;28;20213;-78
2022/11/02 08:48:44;;;;;;;2.27;1.50;;;16.20;39.90;;;;;;4988405;28;20190;-78
2022/11/02 08:51:10;;;;;;;2.87;1.50;;;16.30;40.00;;;;;;5002147;28;20239;-78
2022/11/02 08:53:36;;;;;;;2.17;1.40;;;16.50;39.90;;;;;;4976555;28;20472;-80
2022/11/02 08:56:02;;;;;;;2.83;1.57;;;16.60;39.90;;;;;;4987438;28;20498;-80
2022/11/02 08:58:27;;;;;;;2.00;1.20;;;16.60;39.70;;;;;;4986552;28;20186;-78
2022/11/02 09:00:53;;;;;;;2.60;1.60;;;16.50;39.60;;;;;;4986812;28;20183;-77
2022/11/02 09:03:19;;;;;;;2.23;1.50;;;16.60;40.30;;;;;;4996020;28;20248;-79
2022/11/02 09:05:46;;;;;;;2.60;1.60;;;16.90;40.40;;;;;;4979409;28;20469;-78
2022/11/02 09:08:15;;;;;;;2.07;1.37;;;17.10;39.70;;;;;;4991742;28;20568;-79
2022/11/02 09:10:41;;;;;;;2.00;1.40;;;17.20;40.40;;;;;;4990958;28;20649;-77
2022/11/02 09:13:10;;;;;;;2.10;1.40;;;17.50;39.30;;;;;;4994559;28;21000;-78
2022/11/02 09:15:36;;;;;;;2.00;1.30;;;17.60;37.80;;;;;;4978901;28;20441;-79
2022/11/02 09:18:03;;;;;;;2.00;1.30;;;17.40;36.40;;;;;;4991819;28;20529;-76
2022/11/02 09:20:29;;;;;;;1.80;1.20;;;17.10;37.90;;;;;;4988531;28;20576;-78
2022/11/02 09:22:55;;;;;;;1.90;1.23;;;17.00;37.60;;;;;;4983037;28;20478;-79
2022/11/02 09:25:20;;;;;;;1.80;1.17;;;17.00;38.80;;;;;;4985081;28;20899;-78
2022/11/02 09:27:50;;;;;;;1.73;1.10;;;16.30;38.90;;;;;;4996106;28;20234;-78
2022/11/02 09:30:16;;;;;;;1.90;1.30;;;16.70;39.60;;;;;;4996692;28;20182;-78
2022/11/02 09:32:42;;;;;;;1.77;1.20;;;16.60;38.40;;;;;;4997824;28;20487;-79
2022/11/02 09:35:11;;;;;;;1.77;1.13;;;16.70;38.60;;;;;;4994403;28;20191;-78
2022/11/02 09:37:37;;;;;;;2.00;1.47;;;17.10;37.90;;;;;;4997818;28;20233;-77
2022/11/02 09:40:06;;;;;;;1.80;1.20;;;17.30;37.60;;;;;;4998761;28;20445;-78
2022/11/02 09:42:56;;;;;;;2.00;1.37;;;17.10;37.80;;;;;;5004880;28;20546;-79
2022/11/02 09:45:22;;;;;;;2.27;1.40;;;16.70;38.90;;;;;;4998145;28;20458;-79
2022/11/02 09:47:53;;;;;;;2.57;1.43;;;17.00;37.60;;;;;;5007909;28;20437;-79
2022/11/02 09:50:22;;;;;;;1.83;1.23;;;16.80;37.90;;;;;;5017855;28;20409;-79
2022/11/02 09:52:58;;;;;;;1.80;1.27;;;16.70;38.60;;;;;;5003394;28;20445;-76
2022/11/02 09:55:35;;;;;;;1.70;1.10;;;16.70;38.60;;;;;;4988538;28;20453;-78
2022/11/02 09:58:15;;;;;;;1.80;1.20;;;16.70;38.60;;;;;;4980665;28;20496;-76
2022/11/02 10:00:44;;;;;;;2.20;1.40;;;17.30;37.50;;;;;;4979183;28;21000;-76
2022/11/02 10:03:49;;;;;;;1.70;1.20;;;17.00;37.20;;;;;;5002309;28;20440;-79
2022/11/02 10:06:20;;;;;;;16.37;2.37;;;17.10;37.30;;;;;;4975287;28;20508;-76
2022/11/02 10:09:00;;;;;;;1.80;1.30;;;16.70;37.40;;;;;;4987634;28;20433;-79
2022/11/02 10:12:18;;;;;;;1.63;1.10;;;17.00;37.80;;;;;;4989842;28;20556;-77
2022/11/02 10:15:07;;;;;;;1.70;1.20;;;17.00;37.10;;;;;;4927379;29;20558;-78
2022/11/02 10:17:36;;;;;;;1.70;1.20;;;17.30;37.10;;;;;;4927274;29;20474;-75
2022/11/02 10:20:17;;;;;;;1.60;1.10;;;16.70;37.60;;;;;;4927109;29;20438;-76
2022/11/02 10:22:44;;;;;;;2.20;1.40;;;16.40;39.10;;;;;;4924000;29;20451;-76
2022/11/02 10:25:14;;;;;;;2.60;1.70;;;16.40;39.00;;;;;;4925788;28;20499;-77
2022/11/02 10:27:43;;;;;;;2.10;1.50;;;17.10;38.40;;;;;;4916753;29;20440;-77
2022/11/02 10:30:19;;;;;;;2.60;1.50;;;17.40;37.10;;;;;;4909544;29;20496;-75
2022/11/02 10:32:50;;;;;;;1.97;1.57;;;17.50;37.00;;;;;;4923568;29;20448;-78
2022/11/02 10:35:33;;;;;;;1.80;1.27;;;17.90;36.50;;;;;;4925596;29;20422;-78
2022/11/02 10:38:15;;;;;;;1.63;1.10;;;18.30;34.60;;;;;;4916346;29;20417;-78
2022/11/02 10:40:59;;;;;;;1.70;1.10;;;17.50;35.50;;;;;;4914822;29;20449;-79
2022/11/02 10:43:27;;;;;;;1.70;1.10;;;17.80;35.60;;;;;;4922477;29;20491;-81
2022/11/02 10:46:21;;;;;;;1.70;1.20;;;17.30;35.20;;;;;;4928852;29;20840;-80
2022/11/02 10:48:52;;;;;;;1.93;1.30;;;17.50;35.70;;;;;;4913542;29;20466;-80
2022/11/02 10:51:20;;;;;;;1.70;1.20;;;17.20;36.80;;;;;;4995561;28;20529;-78
2022/11/02 10:53:48;;;;;;;2.60;1.47;;;17.70;35.60;;;;;;5004934;28;20426;-79
2022/11/02 10:56:20;;;;;;;1.70;1.20;;;17.30;36.10;;;;;;5008751;28;20455;-77
2022/11/02 10:59:07;;;;;;;1.80;1.40;;;17.00;36.60;;;;;;4987237;28;20933;-78
2022/11/02 11:01:33;;;;;;;1.73;1.27;;;16.90;36.50;;;;;;5013554;28;21251;-80
2022/11/02 11:04:01;;;;;;;2.43;1.47;;;17.30;35.90;;;;;;5016295;28;20486;-79
2022/11/02 11:06:36;;;;;;;1.73;1.27;;;17.50;35.60;;;;;;5017483;28;20219;-78
2022/11/02 11:09:17;;;;;;;1.67;1.13;;;17.30;36.40;;;;;;4997194;28;20462;-77
2022/11/02 11:11:55;;;;;;;1.70;1.20;;;17.10;36.20;;;;;;4982878;28;20442;-77
2022/11/02 11:14:23;;;;;;;1.70;1.10;;;16.70;37.40;;;;;;5003653;28;20828;-80
2022/11/02 11:16:54;;;;;;;1.70;1.20;;;16.90;37.10;;;;;;4989235;28;20477;-80
2022/11/02 11:19:35;;;;;;;1.70;1.20;;;17.10;37.40;;;;;;5008083;28;20436;-80
2022/11/02 11:22:23;;;;;;;2.43;1.47;;;16.80;37.50;;;;;;5000364;28;20932;-79
2022/11/02 11:24:49;;;;;;;4.63;2.07;;;17.20;37.30;;;;;;5000587;28;20478;-79
2022/11/02 11:27:20;;;;;;;1.70;1.20;;;17.80;35.80;;;;;;5001616;28;20440;-79
2022/11/02 11:29:56;;;;;;;1.70;1.20;;;17.70;35.50;;;;;;5005930;28;20179;-74
2022/11/02 11:32:23;;;;;;;1.70;1.23;;;17.70;34.30;;;;;;5012477;28;20471;-78
2022/11/02 11:35:00;;;;;;;1.70;1.20;;;17.60;34.80;;;;;;5010117;28;20990;-77
2022/11/02 11:37:26;;;;;;;1.70;1.23;;;17.20;35.70;;;;;;4999247;28;21186;-79
2022/11/02 11:39:57;;;;;;;1.63;1.10;;;17.20;35.50;;;;;;4997573;28;20425;-79
2022/11/02 11:42:26;;;;;;;1.60;1.10;;;16.80;36.50;;;;;;4992672;28;20186;-77
2022/11/02 11:45:04;;;;;;;1.80;1.30;;;16.90;36.90;;;;;;4984219;28;20462;-77
2022/11/02 11:47:36;;;;;;;1.70;1.20;;;17.40;35.20;;;;;;4994931;28;20445;-76
2022/11/02 11:50:14;;;;;;;1.70;1.17;;;17.60;34.30;;;;;;4994147;28;20917;-76
2022/11/02 11:52:40;;;;;;;1.63;1.10;;;17.30;33.90;;;;;;4991165;28;20474;-76
2022/11/02 11:55:23;;;;;;;1.70;1.10;;;17.60;33.50;;;;;;4987461;28;20438;-75
2022/11/02 11:58:19;;;;;;;1.70;1.20;;;17.70;32.80;;;;;;4987938;28;20464;-77
2022/11/02 12:00:44;;;;;;;1.70;1.10;;;17.40;33.20;;;;;;4969897;28;20442;-76
2022/11/02 12:03:12;;;;;;;1.90;1.40;;;17.50;33.20;;;;;;4993971;28;20839;-77
2022/11/02 12:06:15;;;;;;;1.80;1.20;;;17.60;33.60;;;;;;4994333;28;20342;-77
2022/11/02 12:09:20;;;;;;;2.00;1.40;;;17.50;33.50;;;;;;4939360;29;20450;-77
2022/11/02 12:11:52;;;;;;;1.80;1.30;;;17.30;33.10;;;;;;4900795;29;20421;-77
2022/11/02 12:15:05;;;;;;;1.80;1.30;;;16.80;34.70;;;;;;4914946;29;20421;-77
2022/11/02 12:17:45;;;;;;;1.90;1.30;;;17.00;33.50;;;;;;4932283;29;20540;-77
2022/11/02 12:20:49;;;;;;;1.70;1.20;;;16.40;35.80;;;;;;4942553;29;20416;-77
2022/11/02 12:23:32;;;;;;;2.13;1.47;;;16.80;35.50;;;;;;4952750;29;20407;-77
2022/11/02 12:26:56;;;;;;;1.80;1.30;;;17.70;34.30;;;;;;4936634;29;20511;-77
2022/11/02 12:29:46;;;;;;;1.83;1.30;;;18.50;32.40;;;;;;4865024;29;20522;-77
2022/11/02 12:32:36;;;;;;;1.90;1.20;;;18.20;32.00;;;;;;4887937;29;20844;-76
2022/11/02 12:35:20;;;;;;;2.07;1.37;;;18.10;32.20;;;;;;4873177;29;20442;-77
2022/11/02 12:38:07;;;;;;;1.90;1.30;;;17.70;33.20;;;;;;4871540;29;20525;-77
2022/11/02 12:41:05;;;;;;;1.97;1.20;;;18.40;31.80;;;;;;4872353;29;20452;-77
2022/11/02 12:43:37;;;;;;;1.80;1.17;;;18.00;31.90;;;;;;4875497;29;20874;-77
2022/11/02 12:46:25;;;;;;;2.00;1.30;;;18.10;32.40;;;;;;4885666;29;21062;-77
2022/11/02 12:49:08;;;;;;;1.90;1.20;;;18.30;32.40;;;;;;4886124;29;21040;-77
2022/11/02 12:51:45;;;;;;;2.20;1.40;;;18.50;31.60;;;;;;4887190;29;20436;-77
2022/11/02 12:54:19;;;;;;;2.07;1.20;;;18.30;32.10;;;;;;4894264;29;20488;-77
2022/11/02 12:56:50;;;;;;;2.40;1.40;;;19.10;29.50;;;;;;4893913;29;20473;-77
2022/11/02 12:59:31;;;;;;;2.20;1.30;;;19.30;27.80;;;;;;4879909;29;20514;-77
2022/11/02 13:02:03;;;;;;;3.00;1.60;;;19.60;27.60;;;;;;4887140;29;20774;-77
2022/11/02 13:04:41;;;;;;;2.37;1.37;;;18.90;28.70;;;;;;4890766;29;20528;-77
2022/11/02 13:07:13;;;;;;;2.20;1.30;;;18.90;29.30;;;;;;4981252;28;20522;-77
2022/11/02 13:09:42;;;;;;;3.07;1.67;;;19.70;28.60;;;;;;4991849;28;20527;-76
2022/11/02 13:12:16;;;;;;;6.10;1.50;;;19.90;27.60;;;;;;4989928;28;20429;-77
2022/11/02 13:14:47;;;;;;;2.67;1.27;;;20.00;27.30;;;;;;4993561;28;20414;-75
2022/11/02 13:17:20;;;;;;;4.50;1.60;;;20.10;27.40;;;;;;4991875;28;20453;-75
2022/11/02 13:19:51;;;;;;;2.60;1.30;;;18.90;29.00;;;;;;4992918;28;20418;-74
2022/11/02 13:22:20;;;;;;;4.27;1.53;;;19.40;28.20;;;;;;4985915;28;20468;-74